Portada
METAR-TAF:

METAR-TAF

Aeropuertos :

Columbus Municipal Airport

Columbus, Nebraska, Estados Unidos

latitud: 41-27N, longitud: 097-20W, altitud: 440 m

Observación

El informe se hizo hace 57 minutos, a las 05:56 UTC
Viento 12 kt del sur-sureste
Temperatura 27°C
Humedad 70%
Presión 1010 hPa
Visibilidad: 16.1 km
Cielo despejado

METAR: KOLU 070556Z AUTO 15012KT 10SM CLR 27/21 A2982 RMK AO2 SLP082 T02670211 10333 20267 403500222 50009

Hora: 01:53 (06:53 UTC)


TAF: falta

Observaciones y pronósticos meteorológicos de más de 4000 aeropuertos (mensajes METAR y TAF).

Los puntos amarillos y rojos representan las estaciones disponibles.

Ponga el ratón en el punto deseado para ver el nombre de la estación.

Haga clic para ver las observaciones y los pronósticos meteorológicos.

Para cambiar el mapa : haga clic en los botones verdes con una cruz de color negro para hacer un zoom, en el botón verde con un guión para alejar o en las flechas verdes para mapas adyacentes.


METAR-TAF: